Bo Pueblo, Puerto Rico
Current Conditions -  °F | °C
As of 4:56 PM on Thursday 20 Nov 2014 (Local Time) from TJSJ Reporting Station
Scattered Clouds Scattered Clouds  
Wind Chill: 84°   Ceiling: Unl
Heat Index: 91°   Visibility: 10mi
Dew Point: 74°   Wind: 10mph
Humidity: 72%   Direction: 90°E
Pressure: 29.95"   Gusts: NA
Location:  18.3429°N, 66.3176°W
Report Text: TJSJ 202056Z 09009KT 10SM FEW032 SCT075 29/23 A2995 RMK AO2 SLP140 T02890233 55005
Loading
Personal Weather Stations






























Interactive Weather Map New forecast layout! Learn more

10-Day Weather Forecast

Advertisements
Track Severe Weather on mobile